Time;durP1;ratioP1;P1;durP2;ratioP2;P2;SDS_P1;SDS_P2;PMS_P1;PMS_P2;Temp;Humidity;BMP_temperature;BMP_pressure;BME280_temperature;BME280_humidity;BME280_pressure;Samples;Min_cycle;Max_cycle;Signal;HPM_P1;HPM_P2
2022/06/09 00:00:37;;;;;;;;;;;17.50;99.90;;;;;;4988755;28;19971;-62
2022/06/09 00:03:07;;;;;;;;;;;17.60;99.90;;;;;;4987461;28;19967;-62
2022/06/09 00:05:37;;;;;;;;;;;17.60;99.90;;;;;;4993579;28;19974;-62
2022/06/09 00:08:05;;;;;;;;;;;17.50;99.90;;;;;;4994853;28;20469;-61
2022/06/09 00:10:37;;;;;;;;;;;17.60;99.90;;;;;;4994969;28;19972;-62
2022/06/09 00:13:05;;;;;;;;;;;17.50;99.90;;;;;;4993763;28;19964;-62
2022/06/09 00:15:34;;;;;;;;;;;17.50;99.90;;;;;;4994401;28;19964;-62
2022/06/09 00:18:01;;;;;;;;;;;17.40;99.90;;;;;;5002015;28;19998;-61
2022/06/09 00:20:29;;;;;;;;;;;17.30;99.90;;;;;;5008571;28;19986;-62
2022/06/09 00:22:57;;;;;;;;;;;17.30;99.90;;;;;;5012344;28;20417;-62
2022/06/09 00:25:25;;;;;;;;;;;17.20;99.90;;;;;;4997868;28;19964;-62
2022/06/09 00:27:54;;;;;;;;;;;17.30;99.90;;;;;;4994449;28;20010;-63
2022/06/09 00:30:22;;;;;;;;;;;17.00;99.90;;;;;;4994450;28;19968;-62
2022/06/09 00:32:49;;;;;;;;;;;17.00;99.90;;;;;;4993674;28;20013;-62
2022/06/09 00:35:17;;;;;;;;;;;17.20;99.90;;;;;;4994353;28;20500;-63
2022/06/09 00:37:45;;;;;;;;;;;17.20;99.90;;;;;;4994132;28;20441;-62
2022/06/09 00:40:14;;;;;;;;;;;17.20;99.90;;;;;;4994091;28;19966;-62
2022/06/09 00:42:42;;;;;;;;;;;17.30;99.90;;;;;;5011838;28;19967;-63
2022/06/09 00:45:24;;;;;;;;;;;17.10;99.90;;;;;;5011070;28;19963;-62
2022/06/09 00:47:53;;;;;;;;;;;17.10;99.90;;;;;;5006141;28;19963;-62
2022/06/09 00:50:22;;;;;;;;;;;17.20;99.90;;;;;;5008986;28;19964;-63
2022/06/09 00:52:51;;;;;;;;;;;17.10;99.90;;;;;;5004715;28;19970;-63
2022/06/09 00:55:21;;;;;;;;;;;17.20;99.90;;;;;;5012529;28;20315;-62
2022/06/09 00:57:50;;;;;;;;;;;17.20;99.90;;;;;;5012727;28;20495;-62
2022/06/09 01:00:21;;;;;;;;;;;17.10;99.90;;;;;;5005414;28;20420;-63
2022/06/09 01:02:51;;;;;;;;;;;17.10;99.90;;;;;;5008822;28;20045;-63
2022/06/09 01:05:20;;;;;;;;;;;17.10;99.90;;;;;;5010282;28;20443;-63
2022/06/09 01:07:48;;;;;;;;;;;16.90;99.90;;;;;;5009944;28;20010;-62
2022/06/09 01:10:16;;;;;;;;;;;16.90;99.90;;;;;;5012432;28;19963;-63
2022/06/09 01:12:45;;;;;;;;;;;16.90;99.90;;;;;;5011302;28;19994;-62
2022/06/09 01:15:14;;;;;;;;;;;16.90;99.90;;;;;;5003542;28;19960;-63
2022/06/09 01:17:46;;;;;;;;;;;16.80;99.90;;;;;;4994262;28;19968;-62
2022/06/09 01:20:22;;;;;;;;;;;16.80;99.90;;;;;;5010398;28;19968;-63
2022/06/09 01:23:03;;;;;;;;;;;16.70;99.90;;;;;;5007603;28;20445;-61
2022/06/09 01:25:46;;;;;;;;;;;16.70;99.90;;;;;;4991446;28;19967;-61
2022/06/09 01:28:31;;;;;;;;;;;16.60;99.90;;;;;;4997113;28;19986;-62
2022/06/09 01:31:02;;;;;;;;;;;16.60;99.90;;;;;;4999078;28;19968;-61
2022/06/09 01:33:34;;;;;;;;;;;16.60;99.90;;;;;;5009124;28;19968;-62
2022/06/09 01:36:05;;;;;;;;;;;16.40;99.90;;;;;;5011983;28;19963;-62
2022/06/09 01:38:44;;;;;;;;;;;16.40;99.90;;;;;;5012260;28;19998;-62
2022/06/09 01:41:12;;;;;;;;;;;16.40;99.90;;;;;;5008576;28;19963;-61
2022/06/09 01:43:39;;;;;;;;;;;16.20;99.90;;;;;;5010903;28;19963;-61
2022/06/09 01:46:11;;;;;;;;;;;16.20;99.90;;;;;;5002047;28;19970;-62
2022/06/09 01:48:39;;;;;;;;;;;16.20;99.90;;;;;;5009338;28;20495;-61
2022/06/09 01:51:09;;;;;;;;;;;16.20;99.90;;;;;;5011769;28;20010;-61
2022/06/09 01:53:38;;;;;;;;;;;16.20;99.90;;;;;;5010830;28;20455;-61
2022/06/09 01:56:08;;;;;;;;;;;16.30;99.90;;;;;;5011070;28;19971;-61
2022/06/09 01:58:38;;;;;;;;;;;16.20;99.90;;;;;;4988269;28;19964;-62
2022/06/09 02:01:06;;;;;;;;;;;16.10;99.90;;;;;;4992558;28;20034;-62
2022/06/09 02:03:39;;;;;;;;;;;16.10;99.90;;;;;;4991555;28;19968;-62
2022/06/09 02:06:09;;;;;;;;;;;16.10;99.90;;;;;;4992251;28;19964;-62
2022/06/09 02:08:37;;;;;;;;;;;16.10;99.90;;;;;;4992533;28;20440;-62
2022/06/09 02:11:06;;;;;;;;;;;16.10;99.90;;;;;;4992116;28;20014;-62
2022/06/09 02:13:36;;;;;;;;;;;16.20;99.90;;;;;;4991380;28;19975;-62
2022/06/09 02:16:05;;;;;;;;;;;16.20;99.90;;;;;;4992383;28;19964;-61
2022/06/09 02:18:36;;;;;;;;;;;16.20;99.90;;;;;;4997397;28;19964;-62
2022/06/09 02:21:07;;;;;;;;;;;16.20;99.90;;;;;;4992166;28;20425;-62
2022/06/09 02:23:36;;;;;;;;;;;16.10;99.90;;;;;;4991712;28;20004;-65
2022/06/09 02:26:04;;;;;;;;;;;16.10;99.90;;;;;;4992170;28;20469;-62
2022/06/09 02:28:32;;;;;;;;;;;16.10;99.90;;;;;;4992668;28;20014;-62
2022/06/09 02:30:59;;;;;;;;;;;16.30;99.90;;;;;;4991444;28;19971;-61
2022/06/09 02:33:27;;;;;;;;;;;16.20;99.90;;;;;;4992083;28;20460;-62
2022/06/09 02:35:55;;;;;;;;;;;16.00;99.90;;;;;;4994303;28;19967;-62
2022/06/09 02:38:24;;;;;;;;;;;15.80;99.90;;;;;;4994060;28;20087;-62
2022/06/09 02:40:54;;;;;;;;;;;15.90;99.90;;;;;;4993445;28;20449;-62
2022/06/09 02:43:22;;;;;;;;;;;15.80;99.90;;;;;;4992383;28;20349;-62
2022/06/09 02:45:50;;;;;;;;;;;15.80;99.90;;;;;;4993144;28;20407;-62
2022/06/09 02:48:19;;;;;;;;;;;15.90;99.90;;;;;;4997527;28;20031;-62
2022/06/09 02:50:47;;;;;;;;;;;15.80;99.90;;;;;;5012112;28;20034;-61
2022/06/09 02:53:15;;;;;;;;;;;15.70;99.90;;;;;;5011292;28;19991;-62
2022/06/09 02:55:44;;;;;;;;;;;15.90;99.90;;;;;;5012366;28;19967;-61
2022/06/09 02:58:12;;;;;;;;;;;15.90;99.90;;;;;;5012473;28;19979;-62
2022/06/09 03:00:40;;;;;;;;;;;16.00;99.90;;;;;;5011257;28;20371;-62
2022/06/09 03:03:11;;;;;;;;;;;16.00;99.90;;;;;;5009959;28;19975;-61
2022/06/09 03:05:39;;;;;;;;;;;16.00;99.90;;;;;;5009383;28;19967;-62
2022/06/09 03:08:07;;;;;;;;;;;16.00;99.90;;;;;;5004606;28;20010;-62
2022/06/09 03:10:35;;;;;;;;;;;16.20;99.90;;;;;;5011187;28;19963;-62
2022/06/09 03:13:05;;;;;;;;;;;16.10;99.90;;;;;;5010059;28;20326;-62
2022/06/09 03:15:35;;;;;;;;;;;16.20;99.90;;;;;;5005742;28;20007;-62
2022/06/09 03:18:03;;;;;;;;;;;16.20;99.90;;;;;;5002684;28;19964;-62
2022/06/09 03:20:33;;;;;;;1.52;1.40;;;16.30;99.90;;;;;;5012457;28;19966;-62
2022/06/09 03:23:02;;;;;;;3.50;1.60;;;16.40;99.90;;;;;;5008566;28;20217;-62
2022/06/09 03:25:30;;;;;;;3.90;1.02;;;16.50;99.90;;;;;;4997537;28;20198;-61
2022/06/09 03:27:58;;;;;;;5.80;2.25;;;16.70;99.90;;;;;;4997175;28;20205;-61
2022/06/09 03:30:33;;;;;;;1.52;1.27;;;16.80;99.90;;;;;;5001589;28;20202;-62
2022/06/09 03:33:01;;;;;;;4.22;1.70;;;16.70;99.90;;;;;;5014491;28;20271;-62
2022/06/09 03:35:30;;;;;;;1.45;1.35;;;16.70;99.90;;;;;;5016255;28;20547;-62
2022/06/09 03:37:58;;;;;;;2.20;2.00;;;16.50;99.90;;;;;;5015382;28;20205;-62
2022/06/09 03:40:28;;;;;;;1.67;1.33;;;16.60;99.90;;;;;;5004513;28;20208;-62
2022/06/09 03:42:56;;;;;;;2.40;1.52;;;16.70;99.90;;;;;;5013773;28;20210;-61
2022/06/09 03:45:25;;;;;;;2.15;1.20;;;16.70;99.90;;;;;;5008130;28;20213;-61
2022/06/09 03:47:54;;;;;;;7.07;1.77;;;16.70;99.90;;;;;;5002756;28;20333;-62
2022/06/09 03:50:31;;;;;;;4.50;1.55;;;16.80;99.90;;;;;;5009071;28;20202;-61
2022/06/09 03:52:59;;;;;;;5.53;1.65;;;16.80;99.90;;;;;;4988174;28;20221;-63
2022/06/09 03:55:27;;;;;;;4.57;1.92;;;16.80;99.90;;;;;;4994331;28;20213;-63
2022/06/09 03:57:55;;;;;;;3.80;1.25;;;16.80;99.90;;;;;;4994805;28;20194;-63
2022/06/09 04:00:26;;;;;;;3.85;1.83;;;16.80;99.90;;;;;;4998861;28;20205;-63
2022/06/09 04:02:55;;;;;;;3.38;1.80;;;16.90;99.90;;;;;;4993116;28;20225;-64
2022/06/09 04:05:24;;;;;;;4.30;1.77;;;16.80;99.90;;;;;;5000258;28;20206;-63
2022/06/09 04:07:52;;;;;;;2.78;1.40;;;16.80;99.90;;;;;;4995722;28;20200;-63
2022/06/09 04:10:21;;;;;;;2.85;1.58;;;16.90;99.90;;;;;;4995980;28;20213;-63
2022/06/09 04:12:50;;;;;;;4.90;1.60;;;16.90;99.90;;;;;;4983380;28;20710;-63
2022/06/09 04:15:18;;;;;;;3.78;1.92;;;16.80;99.90;;;;;;4976544;28;20216;-62
2022/06/09 04:17:47;;;;;;;4.75;1.95;;;16.50;99.90;;;;;;4976175;28;20217;-62
2022/06/09 04:20:18;;;;;;;5.07;2.15;;;16.00;99.90;;;;;;4973041;28;20285;-64
2022/06/09 04:22:46;;;;;;;3.30;2.10;;;15.70;99.90;;;;;;4976123;28;20865;-62
2022/06/09 04:25:17;;;;;;;2.30;2.10;;;15.40;99.90;;;;;;4973351;28;20246;-62
2022/06/09 04:27:45;;;;;;;4.15;1.90;;;15.10;99.90;;;;;;4976771;28;20206;-62
2022/06/09 04:30:15;;;;;;;4.45;1.75;;;14.90;99.90;;;;;;4972668;28;20854;-63
2022/06/09 04:32:51;;;;;;;2.53;1.98;;;14.80;99.90;;;;;;4975756;28;20803;-63
2022/06/09 04:35:20;;;;;;;6.43;2.45;;;14.60;99.90;;;;;;4976352;28;20206;-62
2022/06/09 04:38:00;;;;;;;2.50;2.28;;;14.60;99.90;;;;;;4977398;28;20207;-63
2022/06/09 04:40:32;;;;;;;4.68;2.13;;;14.50;99.90;;;;;;4973845;28;20718;-62
2022/06/09 04:43:00;;;;;;;3.60;2.13;;;14.40;99.90;;;;;;4975564;28;20226;-62
2022/06/09 04:45:29;;;;;;;6.72;2.58;;;14.30;99.90;;;;;;4976507;28;20268;-62
2022/06/09 04:47:57;;;;;;;7.93;2.50;;;14.20;99.90;;;;;;4974464;28;20208;-62
2022/06/09 04:50:26;;;;;;;5.47;2.30;;;14.20;99.90;;;;;;4974551;28;20206;-63
2022/06/09 04:52:54;;;;;;;6.97;2.70;;;14.20;99.90;;;;;;4974416;28;20201;-62
2022/06/09 04:55:22;;;;;;;6.85;2.72;;;14.10;99.90;;;;;;4975584;28;20225;-62
2022/06/09 04:57:51;;;;;;;11.82;3.17;;;14.00;99.90;;;;;;4976478;28;20257;-62
2022/06/09 05:00:19;;;;;;;4.25;3.17;;;14.00;99.90;;;;;;4973940;28;20315;-62
2022/06/09 05:02:47;;;;;;;4.78;2.90;;;14.00;99.90;;;;;;4974993;28;20221;-63
2022/06/09 05:05:19;;;;;;;5.40;3.13;;;14.00;99.90;;;;;;4974766;28;21195;-62
2022/06/09 05:07:48;;;;;;;5.20;3.35;;;14.00;99.90;;;;;;4976748;28;20214;-62
2022/06/09 05:10:17;;;;;;;6.80;3.53;;;14.00;99.90;;;;;;4973737;28;20210;-62
2022/06/09 05:12:45;;;;;;;2.97;2.63;;;14.10;99.90;;;;;;4973330;28;20675;-62
2022/06/09 05:15:14;;;;;;;2.95;2.65;;;14.10;99.90;;;;;;4973738;28;20213;-63
2022/06/09 05:17:43;;;;;;;4.88;3.03;;;14.20;99.90;;;;;;4975533;28;20770;-62
2022/06/09 05:20:13;;;;;;;5.00;2.90;;;14.30;99.90;;;;;;4972357;28;20271;-62
2022/06/09 05:22:40;;;;;;;7.75;3.35;;;14.30;99.90;;;;;;4972443;28;20276;-62
2022/06/09 05:25:10;;;;;;;10.32;3.40;;;14.40;99.90;;;;;;4974562;28;20300;-62
2022/06/09 05:27:38;;;;;;;5.15;2.97;;;14.50;99.90;;;;;;4975480;28;20202;-62
2022/06/09 05:30:10;;;;;;;6.65;3.58;;;14.50;99.90;;;;;;4975086;28;20202;-62
2022/06/09 05:32:38;;;;;;;6.20;3.05;;;14.50;99.90;;;;;;4971587;28;20265;-62
2022/06/09 05:35:07;;;;;;;9.65;3.25;;;14.60;99.90;;;;;;4975572;28;20744;-62
2022/06/09 05:45:50;;;;;;;7.20;2.92;;;14.80;99.90;;;;;;4974712;28;20209;-62
2022/06/09 05:48:19;;;;;;;8.00;3.78;;;14.90;99.90;;;;;;4976127;28;20335;-62
2022/06/09 05:50:47;;;;;;;5.65;3.20;;;14.90;99.90;;;;;;4972056;28;20206;-62
2022/06/09 05:53:15;;;;;;;4.97;2.97;;;14.90;99.90;;;;;;4973813;28;20217;-62
2022/06/09 05:55:44;;;;;;;5.70;3.53;;;15.00;99.90;;;;;;4971780;28;20213;-63
2022/06/09 05:58:12;;;;;;;7.57;3.13;;;15.00;99.90;;;;;;4975221;28;20209;-62
2022/06/09 06:00:42;;;;;;;7.22;2.80;;;15.10;99.90;;;;;;4972560;28;20265;-63
2022/06/09 06:03:13;;;;;;;6.93;2.80;;;15.20;99.90;;;;;;4972244;28;20699;-63
2022/06/09 06:08:27;;;;;;;7.15;3.00;;;15.40;99.90;;;;;;4974592;28;20210;-62
2022/06/09 06:10:57;;;;;;;3.35;2.28;;;15.50;99.90;;;;;;4972249;28;20957;-62
2022/06/09 06:13:26;;;;;;;5.03;2.20;;;15.60;99.90;;;;;;4972394;28;21639;-62
2022/06/09 06:15:54;;;;;;;5.63;2.00;;;15.70;99.90;;;;;;4974633;28;20209;-63
2022/06/09 06:18:30;;;;;;;15.90;2.30;;;15.80;99.90;;;;;;4972832;28;20206;-62
2022/06/09 06:20:58;;;;;;;5.47;2.45;;;16.00;99.90;;;;;;4973464;28;20786;-62
2022/06/09 06:23:27;;;;;;;6.97;2.40;;;16.10;99.90;;;;;;4982363;28;20872;-66
2022/06/09 06:25:57;;;;;;;8.88;2.20;;;16.20;99.90;;;;;;4988985;28;20206;-63
2022/06/09 06:28:27;;;;;;;3.55;2.13;;;16.20;99.90;;;;;;4984720;28;20224;-63
2022/06/09 06:30:57;;;;;;;4.10;1.92;;;16.30;99.90;;;;;;4991351;28;20202;-63
2022/06/09 06:33:26;;;;;;;7.30;2.28;;;16.40;99.90;;;;;;4991158;28;20441;-63
2022/06/09 06:35:53;;;;;;;6.30;1.77;;;16.60;99.90;;;;;;4991745;28;20217;-63
2022/06/09 06:38:22;;;;;;;5.55;2.40;;;16.70;99.90;;;;;;4991911;28;20209;-63
2022/06/09 06:40:50;;;;;;;3.60;1.75;;;16.80;99.90;;;;;;4991697;28;20202;-62
2022/06/09 06:43:20;;;;;;;6.65;2.08;;;16.90;99.90;;;;;;4991044;28;20288;-63
2022/06/09 06:45:48;;;;;;;6.40;2.40;;;17.00;99.90;;;;;;4991478;28;20202;-63
2022/06/09 06:48:16;;;;;;;10.48;2.42;;;17.10;99.90;;;;;;4994619;28;20198;-63
2022/06/09 06:50:44;;;;;;;7.78;2.10;;;17.30;99.90;;;;;;5002812;28;20586;-63
2022/06/09 06:53:12;;;;;;;4.60;2.05;;;17.30;99.90;;;;;;4995004;28;20601;-63
2022/06/09 06:55:41;;;;;;;7.07;2.05;;;17.40;99.90;;;;;;4995549;28;20206;-62
2022/06/09 06:58:09;;;;;;;6.55;1.80;;;17.40;99.90;;;;;;4995742;28;20208;-63
2022/06/09 07:00:42;;;;;;;4.57;2.10;;;17.40;99.90;;;;;;4998569;28;20201;-63
2022/06/09 07:03:11;;;;;;;9.25;1.92;;;17.50;99.90;;;;;;5013263;28;20702;-63
2022/06/09 07:05:54;;;;;;;7.75;2.30;;;17.60;99.90;;;;;;5014045;28;20744;-64
2022/06/09 07:08:24;;;;;;;2.47;1.40;;;17.90;99.90;;;;;;5014153;28;20205;-63
2022/06/09 07:10:53;;;;;;;7.85;2.00;;;18.00;99.90;;;;;;4989024;28;20205;-63
2022/06/09 07:13:22;;;;;;;7.88;2.08;;;18.20;99.90;;;;;;4988290;28;20233;-63
2022/06/09 07:15:51;;;;;;;3.22;1.90;;;18.40;99.90;;;;;;4994519;28;20197;-63
2022/06/09 07:18:27;;;;;;;6.00;2.00;;;18.40;99.90;;;;;;4997312;28;20202;-63
2022/06/09 07:20:55;;;;;;;4.57;1.83;;;18.50;99.90;;;;;;4999946;28;20206;-63
2022/06/09 07:23:24;;;;;;;6.47;2.00;;;18.40;99.90;;;;;;4994327;28;20221;-63
2022/06/09 07:25:52;;;;;;;5.35;1.85;;;18.40;99.90;;;;;;4994893;28;20206;-63
2022/06/09 07:28:20;;;;;;;5.65;1.70;;;18.30;99.90;;;;;;4995042;28;20257;-63
2022/06/09 07:30:49;;;;;;;6.28;2.30;;;18.20;99.90;;;;;;5001696;28;20658;-63
2022/06/09 07:33:18;;;;;;;4.95;2.15;;;18.00;99.90;;;;;;5012993;28;20225;-63
2022/06/09 07:35:46;;;;;;;4.03;2.10;;;17.80;99.90;;;;;;5013371;28;20280;-63
2022/06/09 07:38:14;;;;;;;4.50;2.38;;;17.70;99.90;;;;;;5013550;28;20220;-63
2022/06/09 07:40:42;;;;;;;6.55;1.90;;;17.50;99.90;;;;;;5013708;28;20201;-63
2022/06/09 07:43:11;;;;;;;4.88;1.80;;;17.40;99.90;;;;;;5012524;28;20240;-63
2022/06/09 07:45:41;;;;;;;4.40;1.67;;;17.20;99.90;;;;;;5007865;28;20197;-63
2022/06/09 07:48:09;;;;;;;7.95;2.25;;;17.20;99.90;;;;;;5003788;28;20202;-63
2022/06/09 07:50:58;;;;;;;3.88;1.92;;;17.10;99.90;;;;;;5012422;28;20201;-63
2022/06/09 07:53:26;;;;;;;5.60;2.30;;;17.20;99.90;;;;;;5012574;28;20210;-63
2022/06/09 07:55:55;;;;;;;10.10;2.78;;;17.20;99.90;;;;;;5013020;28;20220;-63
2022/06/09 07:58:28;;;;;;;5.30;2.15;;;17.30;99.90;;;;;;5013479;28;20204;-64
2022/06/09 08:00:56;;;;;;;6.38;1.48;;;17.30;99.90;;;;;;5007000;28;20244;-63
2022/06/09 08:03:27;;;;;;;4.00;1.63;;;17.10;99.90;;;;;;5011304;28;20232;-63
2022/06/09 08:05:56;;;;;;;3.40;1.52;;;17.10;99.90;;;;;;5012980;28;20220;-63
2022/06/09 08:08:45;;;;;;;5.07;1.60;;;17.10;99.90;;;;;;5013199;28;20205;-63
2022/06/09 08:11:13;;;;;;;4.97;1.55;;;17.10;99.90;;;;;;5013007;28;20205;-63
2022/06/09 08:13:41;;;;;;;4.88;1.55;;;17.10;99.90;;;;;;5011208;28;20267;-64
2022/06/09 08:16:09;;;;;;;7.43;2.00;;;17.10;99.90;;;;;;5008061;28;20205;-63
2022/06/09 08:18:37;;;;;;;5.40;1.83;;;17.10;99.90;;;;;;4995371;28;20202;-63
2022/06/09 08:21:05;;;;;;;3.22;1.95;;;17.20;99.90;;;;;;4989116;28;20206;-63
2022/06/09 08:23:52;;;;;;;5.50;1.80;;;17.40;99.90;;;;;;4993420;28;20296;-63
2022/06/09 08:26:20;;;;;;;3.00;1.23;;;17.30;99.90;;;;;;4993955;28;20201;-63
2022/06/09 08:28:49;;;;;;;2.67;1.40;;;17.40;99.90;;;;;;4993528;28;20226;-64
2022/06/09 08:31:17;;;;;;;3.10;1.42;;;17.30;99.90;;;;;;4993537;28;20198;-63
2022/06/09 08:33:45;;;;;;;2.83;1.60;;;17.40;99.90;;;;;;4992777;28;20233;-63
2022/06/09 08:36:13;;;;;;;7.45;2.20;;;17.60;99.90;;;;;;4993369;28;20201;-64
2022/06/09 08:38:42;;;;;;;5.00;2.03;;;17.80;99.90;;;;;;5010573;28;20213;-63
2022/06/09 08:41:29;;;;;;;3.58;1.35;;;18.10;99.90;;;;;;5012236;28;20201;-63
2022/06/09 08:44:09;;;;;;;7.10;1.90;;;18.20;99.90;;;;;;4986050;28;20711;-63
2022/06/09 08:46:44;;;;;;;6.93;2.50;;;18.20;99.90;;;;;;4988597;28;20205;-63
2022/06/09 08:49:28;;;;;;;5.20;1.90;;;18.20;99.90;;;;;;4999870;28;20213;-63
2022/06/09 08:52:01;;;;;;;6.10;1.63;;;18.20;99.90;;;;;;5011853;28;20201;-62
2022/06/09 08:54:32;;;;;;;4.50;1.92;;;18.20;99.90;;;;;;5012292;28;20251;-63
2022/06/09 08:57:06;;;;;;;2.92;1.50;;;18.10;99.90;;;;;;5011891;28;20205;-63
2022/06/09 08:59:37;;;;;;;5.05;2.65;;;18.20;99.90;;;;;;4988231;28;20205;-63
2022/06/09 09:02:20;;;;;;;6.03;1.98;;;18.30;99.90;;;;;;4986369;28;20205;-63
2022/06/09 09:05:06;;;;;;;4.15;2.10;;;18.60;99.90;;;;;;4988950;28;20233;-64
2022/06/09 09:07:37;;;;;;;3.22;1.80;;;18.80;99.90;;;;;;4993222;28;20206;-63
2022/06/09 09:10:16;;;;;;;5.15;2.30;;;18.90;99.90;;;;;;4993142;28;20209;-64
2022/06/09 09:13:08;;;;;;;4.40;2.10;;;18.90;99.90;;;;;;4992008;28;20208;-63
2022/06/09 09:15:43;;;;;;;3.60;1.90;;;18.70;99.90;;;;;;4989685;28;20202;-63
2022/06/09 09:18:22;;;;;;;7.70;1.67;;;18.50;99.90;;;;;;4996336;28;20192;-64
2022/06/09 09:20:59;;;;;;;3.90;1.80;;;18.30;99.90;;;;;;4996156;28;20686;-63
2022/06/09 09:23:33;;;;;;;3.35;1.60;;;18.20;99.90;;;;;;4985643;28;20235;-63
2022/06/09 09:26:09;;;;;;;2.75;1.60;;;18.20;99.90;;;;;;4992500;28;20221;-63
2022/06/09 09:28:47;;;;;;;2.30;1.48;;;18.20;99.90;;;;;;4992726;28;20192;-63
2022/06/09 09:31:25;;;;;;;5.20;1.55;;;18.20;99.90;;;;;;4992654;28;21165;-63
2022/06/09 09:33:53;;;;;;;5.40;1.95;;;18.30;99.90;;;;;;4991754;28;20217;-63
2022/06/09 09:36:25;;;;;;;3.30;1.90;;;18.40;99.90;;;;;;4992514;28;20209;-63
2022/06/09 09:38:57;;;;;;;4.82;1.73;;;18.80;99.90;;;;;;4992416;28;20205;-64
2022/06/09 09:41:28;;;;;;;4.57;1.65;;;19.40;99.90;;;;;;4992612;28;20216;-64
2022/06/09 09:43:57;;;;;;;3.13;1.55;;;19.70;99.90;;;;;;4996308;28;20244;-64
2022/06/09 09:46:29;;;;;;;3.67;1.40;;;20.00;99.90;;;;;;5009383;28;20312;-64
2022/06/09 09:49:00;;;;;;;3.65;1.40;;;20.20;99.90;;;;;;4997408;28;20217;-63
2022/06/09 09:51:34;;;;;;;5.95;1.58;;;20.10;99.90;;;;;;5102014;23;20249;-63
2022/06/09 09:54:10;;;;;;;3.50;1.85;;;19.90;99.90;;;;;;4993731;28;20202;-64
2022/06/09 09:56:39;;;;;;;4.70;1.98;;;19.80;99.90;;;;;;5011066;28;20216;-64
2022/06/09 09:59:22;;;;;;;3.92;1.55;;;19.80;99.90;;;;;;5010948;28;20197;-64
2022/06/09 10:10:59;;;;;;;3.30;1.50;;;19.80;99.90;;;;;;4991814;28;20217;-66
2022/06/09 10:13:33;;;;;;;4.43;1.70;;;19.70;99.90;;;;;;4990871;28;20212;-67
2022/06/09 10:16:03;;;;;;;3.25;1.70;;;19.70;99.90;;;;;;4992455;28;20589;-66
2022/06/09 10:18:54;;;;;;;2.00;1.40;;;19.70;99.90;;;;;;4996887;28;20209;-66
2022/06/09 10:21:51;;;;;;;3.92;1.55;;;19.70;99.90;;;;;;4995176;28;20221;-66
2022/06/09 10:24:24;;;;;;;2.15;1.15;;;19.70;99.90;;;;;;4991386;28;20208;-66
2022/06/09 10:27:13;;;;;;;3.20;1.30;;;19.50;99.90;;;;;;4999823;28;20203;-66
2022/06/09 10:29:47;;;;;;;3.50;1.50;;;19.60;99.90;;;;;;5010810;28;20215;-66
2022/06/09 10:32:22;;;;;;;6.72;1.55;;;19.70;99.90;;;;;;5009972;28;20217;-66
2022/06/09 10:34:55;;;;;;;4.88;1.85;;;20.00;99.90;;;;;;5011754;28;20560;-66
2022/06/09 10:37:28;;;;;;;2.55;1.23;;;20.20;99.90;;;;;;5010688;28;20382;-66
2022/06/09 10:40:01;;;;;;;5.05;2.10;;;20.30;99.90;;;;;;5010815;28;20201;-64
2022/06/09 10:42:36;;;;;;;5.72;2.40;;;20.40;99.90;;;;;;5009531;28;20229;-64
2022/06/09 10:45:22;;;;;;;2.90;1.50;;;20.20;99.90;;;;;;4985838;28;20224;-64
2022/06/09 10:56:34;;;;;;;3.47;1.65;;;20.60;99.90;;;;;;4991813;28;20194;-65
2022/06/09 10:59:08;;;;;;;6.40;1.80;;;20.90;99.90;;;;;;4992211;28;20620;-65
2022/06/09 11:01:36;;;;;;;7.00;2.13;;;21.10;99.90;;;;;;4991156;28;20571;-65
2022/06/09 11:04:13;;;;;;;5.15;1.95;;;21.20;99.90;;;;;;4990627;28;20206;-65
2022/06/09 11:06:54;;;;;;;3.88;1.70;;;21.50;99.90;;;;;;4989509;28;20275;-65
2022/06/09 11:09:30;;;;;;;2.88;1.98;;;21.60;99.90;;;;;;4991720;28;20202;-65
2022/06/09 11:12:10;;;;;;;4.75;2.20;;;21.80;99.90;;;;;;4990843;28;20221;-65
2022/06/09 11:14:47;;;;;;;3.30;2.08;;;22.10;99.90;;;;;;4991645;28;20654;-65
2022/06/09 11:17:32;;;;;;;3.17;1.63;;;22.10;99.90;;;;;;4991468;28;20202;-65
2022/06/09 11:20:17;;;;;;;6.10;1.75;;;22.20;99.90;;;;;;4992759;28;20202;-64
2022/06/09 11:22:54;;;;;;;5.47;1.98;;;22.30;99.90;;;;;;4987986;28;20226;-65
2022/06/09 11:25:38;;;;;;;4.97;2.10;;;22.30;99.90;;;;;;4991178;28;20237;-65
2022/06/09 11:28:27;;;;;;;2.65;1.27;;;22.20;99.90;;;;;;4991418;28;20201;-65
2022/06/09 11:31:22;;;;;;;4.80;2.20;;;21.80;99.90;;;;;;4985452;28;20300;-65
2022/06/09 11:34:06;;;;;;;5.95;1.80;;;21.50;99.90;;;;;;4981302;28;20224;-65
2022/06/09 11:36:43;;;;;;;5.20;2.33;;;21.40;99.90;;;;;;5011068;28;20197;-65
2022/06/09 11:39:29;;;;;;;5.70;2.05;;;21.40;99.90;;;;;;5013366;28;20220;-65
2022/06/09 11:42:04;;;;;;;2.33;1.80;;;21.80;99.90;;;;;;5006178;28;20225;-65
2022/06/09 11:44:35;;;;;;;5.90;2.00;;;21.70;99.90;;;;;;5013726;28;20658;-65
2022/06/09 11:47:10;;;;;;;6.70;1.85;;;21.70;99.90;;;;;;5013440;28;20264;-65
2022/06/09 11:49:42;;;;;;;5.88;2.00;;;21.90;99.90;;;;;;5003348;28;20207;-65
2022/06/09 11:52:17;;;;;;;4.03;1.98;;;21.90;99.90;;;;;;4992891;28;20785;-65
2022/06/09 11:55:01;;;;;;;4.65;1.80;;;22.50;99.90;;;;;;4988346;28;20713;-65
2022/06/09 11:57:48;;;;;;;3.92;1.58;;;23.30;99.90;;;;;;4994560;28;20190;-65
2022/06/09 12:00:38;;;;;;;7.80;1.83;;;23.10;99.90;;;;;;4994317;28;20201;-65
2022/06/09 12:03:22;;;;;;;2.50;1.42;;;23.20;99.90;;;;;;4988108;28;20583;-65
2022/06/09 12:05:57;;;;;;;5.68;2.17;;;23.70;99.90;;;;;;4994404;28;20233;-65
2022/06/09 12:08:37;;;;;;;3.90;1.42;;;23.60;99.90;;;;;;4994234;28;20213;-65
2022/06/09 12:11:18;;;;;;;3.95;1.80;;;23.10;99.90;;;;;;4994632;28;20245;-65
2022/06/09 12:14:10;;;;;;;1.85;1.45;;;22.80;99.90;;;;;;4993361;28;20213;-65
2022/06/09 12:16:53;;;;;;;3.08;1.40;;;22.40;99.90;;;;;;4993955;28;20209;-65
2022/06/09 12:19:24;;;;;;;8.40;1.92;;;22.20;99.90;;;;;;4999240;28;20208;-65
2022/06/09 12:21:55;;;;;;;4.00;1.83;;;22.10;99.90;;;;;;5002156;28;20221;-65
2022/06/09 12:24:32;;;;;;;1.67;1.25;;;21.80;99.90;;;;;;5010968;28;20201;-65
2022/06/09 12:27:39;;;;;;;3.53;1.50;;;21.70;99.90;;;;;;4988768;28;20595;-65
2022/06/09 12:30:27;;;;;;;1.80;1.00;;;21.70;99.90;;;;;;4994170;28;20198;-65
2022/06/09 12:33:29;;;;;;;1.27;0.75;;;21.60;99.90;;;;;;4993055;28;20205;-65
2022/06/09 12:36:02;;;;;;;1.80;0.85;;;21.70;99.90;;;;;;4993912;28;20559;-65
2022/06/09 12:38:34;;;;;;;3.90;1.02;;;22.00;99.90;;;;;;4988165;28;20201;-65
2022/06/09 12:41:15;;;;;;;0.80;0.70;;;22.30;99.90;;;;;;4993521;28;20319;-65
2022/06/09 12:43:45;;;;;;;1.77;0.80;;;22.50;99.90;;;;;;4989723;28;20205;-64
2022/06/09 12:46:21;;;;;;;1.50;0.60;;;22.40;98.80;;;;;;4993676;28;20634;-65
2022/06/09 12:48:51;;;;;;;5.50;0.80;;;22.50;99.90;;;;;;4995877;28;20211;-65
2022/06/09 12:51:25;;;;;;;3.05;1.05;;;22.40;99.90;;;;;;5007645;28;20229;-65
2022/06/09 12:53:56;;;;;;;1.50;0.82;;;22.30;99.90;;;;;;5011414;28;20244;-65
2022/06/09 12:56:35;;;;;;;2.55;1.00;;;22.30;99.90;;;;;;5012425;28;20198;-65
2022/06/09 12:59:17;;;;;;;2.22;1.13;;;22.50;99.90;;;;;;4992268;28;20212;-65
2022/06/09 13:01:57;;;;;;;2.47;1.10;;;22.50;99.90;;;;;;4993237;28;20214;-66
2022/06/09 13:04:28;;;;;;;3.65;1.30;;;22.30;99.90;;;;;;4992907;28;20216;-65
2022/06/09 13:06:57;;;;;;;5.60;1.63;;;22.40;99.90;;;;;;4993036;28;20230;-65
2022/06/09 13:09:28;;;;;;;4.50;1.30;;;22.60;99.90;;;;;;4993195;28;20209;-65
2022/06/09 13:14:47;;;;;;;4.00;1.50;;;22.20;99.90;;;;;;4992742;28;20202;-65
2022/06/09 13:17:18;;;;;;;3.42;1.38;;;22.40;99.90;;;;;;4992744;28;20202;-65
2022/06/09 13:19:56;;;;;;;3.65;1.58;;;22.40;99.90;;;;;;4999002;28;20209;-65
2022/06/09 13:22:26;;;;;;;3.38;1.27;;;22.30;99.90;;;;;;4993542;28;20229;-65
2022/06/09 13:24:55;;;;;;;2.22;1.40;;;21.90;99.90;;;;;;4992896;28;20202;-65
2022/06/09 13:27:29;;;;;;;2.38;1.45;;;21.90;99.90;;;;;;4992676;28;20206;-65
2022/06/09 13:30:03;;;;;;;2.17;1.35;;;22.10;99.90;;;;;;4993006;28;20285;-65
2022/06/09 13:32:39;;;;;;;4.13;1.30;;;22.50;99.90;;;;;;4991833;28;20316;-65
2022/06/09 13:35:34;;;;;;;2.78;1.40;;;22.90;99.90;;;;;;5003921;28;20212;-65
2022/06/09 13:38:05;;;;;;;4.18;1.70;;;23.10;99.90;;;;;;5011810;28;20590;-65
2022/06/09 13:40:43;;;;;;;4.05;1.75;;;23.70;99.90;;;;;;5011274;28;20201;-65
2022/06/09 13:43:21;;;;;;;4.18;1.23;;;24.30;99.90;;;;;;5010411;28;20220;-65
2022/06/09 13:45:53;;;;;;;2.08;1.50;;;25.10;99.90;;;;;;5011448;28;20205;-65
2022/06/09 13:48:25;;;;;;;2.50;0.90;;;25.30;99.90;;;;;;5002469;28;20228;-65
2022/06/09 13:51:10;;;;;;;2.55;1.10;;;25.10;99.70;;;;;;4997395;28;20226;-65
2022/06/09 13:53:45;;;;;;;3.83;1.13;;;25.70;99.90;;;;;;4987795;28;20229;-66
2022/06/09 13:56:14;;;;;;;3.03;1.27;;;26.10;97.80;;;;;;4992522;28;20198;-65
2022/06/09 13:58:43;;;;;;;3.42;1.48;;;25.70;97.20;;;;;;4992251;28;20206;-65
2022/06/09 14:01:12;;;;;;;4.05;1.60;;;25.30;97.40;;;;;;4991578;28;20241;-65
2022/06/09 14:03:44;;;;;;;3.05;1.60;;;24.90;96.50;;;;;;4991096;28;20206;-65
2022/06/09 14:06:16;;;;;;;2.80;1.63;;;24.50;97.10;;;;;;4992246;28;20217;-65